Flight Track Log - Related Links

Times and Time Zones

All times are in EDT time to prevent confusion due to time zone crossing. See the CTL311 flight status page for this flight to view local times or setup timezone preferences in your user account.

Time Position Orientation Groundspeed Altitude Reporting Facility
EDT Latitude Longitude Course Direction KTS MPH feet Rate Location/Type
Wed 12:17:47 AM 41.5478 -81.7219 338° Northwest 150 173 1,900  Level Cleveland Center
Wed 12:18:47 AM 41.5653 -81.7611 301° West 130 150 2,700 706 Climbing Cleveland Center
Wed 12:19:12 AM 41.5708 -81.7767 296° West 139 160 2,900 295 Climbing Cleveland Center
Wed 12:19:48 AM 41.5819 -81.8086 295° West 141 162 3,000  Climbing Cleveland Center
Wed 12:20:12 AM 41.5872 -81.8256 293° West 138 159 2,900 -100 Descending Cleveland Center
Wed 12:20:48 AM 41.5981 -81.8617 292° West 157 181 2,900  Level Cleveland Center
Wed 12:21:13 AM 41.6044 -81.8792 296° West 148 170 2,900  Level Cleveland Center
Wed 12:21:49 AM 41.6144 -81.9119 292° West 150 173 2,900 100 Level Cleveland Center
Wed 12:22:13 AM 41.6197 -81.9306 291° West 148 170 3,000 98 Climbing Cleveland Center
Wed 12:22:50 AM 41.6286 -81.9619 291° West 141 162 3,000 -100 Level Cleveland Center
Wed 12:23:13 AM 41.6331 -81.9800 288° West 147 169 2,900  Descending Cleveland Center
Wed 12:23:50 AM 41.6428 -82.0144 291° West 141 162 3,000 98 Climbing Cleveland Center
Wed 12:24:14 AM 41.6461 -82.0297 286° West 145 167 3,000 -98 Level Cleveland Center
Wed 12:24:51 AM 41.6569 -82.0644 293° West 144 166 2,900  Descending Cleveland Center
Wed 12:25:14 AM 41.6611 -82.0806 289° West 144 166 3,000 100 Climbing Cleveland Center
Wed 12:25:51 AM 41.6708 -82.1172 290° West 152 175 3,000  Level Cleveland Center
Wed 12:26:15 AM 41.6744 -82.1331 287° West 145 167 3,000  Level Cleveland Center
Wed 12:26:52 AM 41.6847 -82.1700 290° West 149 171 3,000 300 Level Cleveland Center
Wed 12:27:15 AM 41.6883 -82.1864 286° West 145 167 3,300 764 Climbing Cleveland Center
Wed 12:27:47 AM 41.6956 -82.2111 291° West 132 152 3,700 689 Climbing Cleveland Center
Wed 12:28:16 AM 41.6994 -82.2289 286° West 137 158 4,000 300 Climbing Cleveland Center
Wed 12:28:47 AM 41.7061 -82.2550 289° West 119 137 4,000  Level Cleveland Center
Wed 12:29:24 AM 41.7139 -82.2864 288° West 140 161 4,000 -61 Level Cleveland Center
Wed 12:30:25 AM 41.7267 -82.3411 287° West 152 175 3,900 -50 Descending Cleveland Center
Wed 12:31:25 AM 41.7417 -82.3958 290° West 152 175 3,900 54 Level Cleveland Center
Wed 12:32:17 AM 41.7539 -82.4353 293° West 151 174 4,000 53 Climbing Cleveland Center
Wed 12:33:18 AM 41.7686 -82.4875 291° West 151 174 4,000  Level Cleveland Center
Wed 12:34:18 AM 41.7819 -82.5400 289° West 151 174 4,000  Level Cleveland Center
Wed 12:35:18 AM 41.7961 -82.5933 290° West 151 174 4,000 -171 Level Cleveland Center
Wed 12:35:28 AM 41.7981 -82.6044 283° West 151 174 3,800 98 Descending Cleveland Center
Wed 12:36:19 AM 41.8114 -82.6456 294° West 151 174 4,100 108 Climbing Cleveland Center
Wed 12:37:19 AM 41.8267 -82.6992 291° West 151 174 4,000 -257 Descending Cleveland Center
Wed 12:37:29 AM 41.8281 -82.7119 278° West 156 180 3,800 -98 Descending Cleveland Center
Wed 12:38:20 AM 41.8411 -82.7542 293° West 153 176 3,900 108 Climbing Cleveland Center
Wed 12:39:20 AM 41.8517 -82.8097 284° West 153 176 4,000  Climbing Cleveland Center
Wed 12:39:30 AM 41.8531 -82.8272 276° West 154 177 3,900 -85 Descending Cleveland Center
Wed 12:40:31 AM 41.8639 -82.8819 285° West 153 176 3,900  Level Cleveland Center
Wed 12:41:31 AM 41.8786 -82.9342 291° West 159 183 3,900 55 Level Cleveland Center
Wed 12:42:21 AM 41.8908 -82.9744 292° West 154 177 4,000  Climbing Cleveland Center
Wed 12:42:32 AM 41.8933 -82.9894 283° West 154 177 3,900  Descending Cleveland Center
Wed 12:43:21 AM 41.9061 -83.0283 294° West 154 177 4,000  Climbing Cleveland Center
Wed 12:43:32 AM 41.9103 -83.0450 289° West 153 176 3,900  Descending Cleveland Center
Wed 12:44:22 AM 41.9211 -83.0819 292° West 154 177 4,000  Climbing Cleveland Center
Wed 12:44:33 AM 41.9250 -83.0975 289° West 152 175 3,900  Descending Cleveland Center
Wed 12:45:22 AM 41.9364 -83.1347 292° West 154 177 4,000  Climbing Cleveland Center
Wed 12:45:34 AM 41.9419 -83.1531 292° West 153 176 3,900  Descending Cleveland Center
Wed 12:46:22 AM 41.9522 -83.1875 292° West 154 177 4,000  Climbing Cleveland Center
Wed 12:46:34 AM 41.9567 -83.2058 288° West 151 174 3,900  Descending Cleveland Center
Wed 12:47:23 AM 41.9658 -83.2406 290° West 154 177 4,000  Climbing Cleveland Center
Wed 12:47:35 AM 41.9694 -83.2581 286° West 151 174 3,900 -83 Descending Cleveland Center
Wed 12:48:35 AM 41.9861 -83.3136 292° West 153 176 3,900 56 Level Cleveland Center
Wed 12:49:23 AM 41.9958 -83.3475 291° West 154 177 4,000  Climbing Cleveland Center
Wed 12:49:36 AM 42.0008 -83.3664 290° West 150 173 3,900  Descending Cleveland Center
Wed 12:50:24 AM 42.0111 -83.4008 292° West 153 176 4,000  Climbing Cleveland Center
Wed 12:50:37 AM 42.0133 -83.4186 280° West 151 174 3,900  Descending Cleveland Center
Wed 12:51:24 AM 42.0242 -83.4550 292° West 153 176 4,000  Climbing Cleveland Center
Wed 12:51:37 AM 42.0278 -83.4742 284° West 152 175 3,900  Descending Cleveland Center
Wed 12:52:24 AM 42.0383 -83.5092 292° West 153 176 4,000  Climbing Cleveland Center
Wed 12:52:38 AM 42.0422 -83.5297 284° West 155 178 3,900  Descending Cleveland Center
Wed 12:53:25 AM 42.0519 -83.5633 291° West 153 176 4,000 100 Climbing Cleveland Center
Wed 12:53:38 AM 42.0569 -83.5822 290° West 154 177 4,000  Level Cleveland Center
Wed 12:54:25 AM 42.0661 -83.6169 290° West 153 176 4,000 -98 Level Cleveland Center
Wed 12:54:39 AM 42.0714 -83.6378 289° West 153 176 3,900  Descending Cleveland Center
Wed 12:55:25 AM 42.0814 -83.6714 292° West 153 176 4,000  Climbing Cleveland Center
Wed 12:55:40 AM 42.0858 -83.6933 285° West 154 177 3,900  Descending Cleveland Center
Wed 12:56:26 AM 42.0933 -83.7269 287° West 153 176 4,000  Climbing Cleveland Center
Wed 12:56:40 AM 42.0981 -83.7486 286° West 155 178 3,900  Descending Cleveland Center
Wed 12:57:26 AM 42.1058 -83.7825 287° West 153 176 4,000  Climbing Cleveland Center
Wed 12:57:41 AM 42.1103 -83.8042 285° West 154 177 3,900  Descending Cleveland Center
Wed 12:58:26 AM 42.1175 -83.8364 287° West 153 176 4,000  Climbing Cleveland Center
Wed 12:58:41 AM 42.1206 -83.8592 280° West 152 175 3,900  Descending Cleveland Center
Wed 12:59:26 AM 42.1297 -83.8928 290° West 153 176 4,000 98 Climbing Cleveland Center
Wed 12:59:42 AM 42.1347 -83.9147 287° West 150 173 4,000  Level Cleveland Center
Wed 01:00:27 AM 42.1428 -83.9456 289° West 153 176 4,000 -57 Level Cleveland Center
Wed 01:01:27 AM 42.1561 -83.9986 289° West 153 176 3,900 -50 Descending Cleveland Center
Wed 01:02:27 AM 42.1692 -84.0517 288° West 153 176 3,900 50 Level Cleveland Center
Wed 01:03:27 AM 42.1819 -84.1044 288° West 151 174 4,000  Climbing Cleveland Center
Wed 01:04:28 AM 42.1933 -84.1581 286° West 151 174 3,900 -98 Descending Cleveland Center

Login

Don't have an account? Register now (free) for customized features, flight alerts, and more!